createdAt,value
2017-09-17T00:01:49.547Z,93.20
2017-09-17T00:04:19.447Z,93.30
2017-09-17T00:06:48.606Z,93.30
2017-09-17T00:09:17.728Z,93.30
2017-09-17T00:11:46.804Z,93.10
2017-09-17T00:14:18.099Z,93.00
2017-09-17T00:16:47.923Z,92.80
2017-09-17T00:19:17.016Z,92.80
2017-09-17T00:21:46.218Z,92.80
2017-09-17T00:24:15.350Z,92.80
2017-09-17T00:26:44.608Z,92.60
2017-09-17T00:29:14.004Z,92.60
2017-09-17T00:31:43.166Z,92.70
2017-09-17T00:34:12.280Z,92.60
2017-09-17T00:36:42.203Z,92.60
2017-09-17T00:39:12.095Z,92.70
2017-09-17T00:41:41.199Z,92.70
2017-09-17T00:44:11.051Z,92.70
2017-09-17T00:46:40.139Z,92.70
2017-09-17T00:49:09.699Z,92.70
2017-09-17T00:51:39.210Z,92.70
2017-09-17T00:54:09.207Z,92.70
2017-09-17T00:56:38.276Z,92.70
2017-09-17T00:59:07.401Z,92.70
2017-09-17T01:01:37.015Z,92.60
2017-09-17T01:04:06.866Z,92.60
2017-09-17T01:06:36.039Z,92.60
2017-09-17T01:09:05.706Z,92.70
2017-09-17T01:11:34.854Z,92.80
2017-09-17T01:14:04.228Z,92.90
2017-09-17T01:16:33.466Z,93.00
2017-09-17T01:19:02.600Z,93.30
2017-09-17T01:21:31.747Z,93.70
2017-09-17T01:24:00.940Z,93.60
2017-09-17T01:26:30.447Z,93.50
2017-09-17T01:29:00.394Z,93.40
2017-09-17T01:31:29.502Z,93.40
2017-09-17T01:33:58.637Z,93.20
2017-09-17T01:36:28.507Z,93.30
2017-09-17T01:38:57.675Z,93.30
2017-09-17T01:41:26.747Z,93.20
2017-09-17T01:43:56.860Z,93.20
2017-09-17T01:46:28.147Z,93.60
2017-09-17T01:49:00.084Z,93.60
2017-09-17T01:51:31.915Z,94.00
2017-09-17T01:54:06.616Z,94.50
2017-09-17T01:56:38.301Z,94.40
2017-09-17T01:59:11.255Z,94.60
2017-09-17T02:01:51.497Z,94.60
2017-09-17T02:04:20.725Z,95.00
2017-09-17T02:06:50.378Z,94.80
2017-09-17T02:09:19.524Z,94.90
2017-09-17T02:11:49.399Z,95.00
2017-09-17T02:14:18.495Z,95.00
2017-09-17T02:16:47.568Z,95.00
2017-09-17T02:19:16.683Z,94.90
2017-09-17T02:21:46.225Z,95.00
2017-09-17T02:24:16.127Z,95.50
2017-09-17T02:26:45.199Z,95.30
2017-09-17T02:29:14.230Z,95.40
2017-09-17T02:31:44.090Z,95.20
2017-09-17T02:34:13.182Z,95.20
2017-09-17T02:36:42.516Z,94.90
2017-09-17T02:39:12.419Z,94.60
2017-09-17T02:41:41.536Z,94.60
2017-09-17T02:44:11.449Z,94.90
2017-09-17T02:46:41.917Z,94.90
2017-09-17T02:49:11.070Z,94.90
2017-09-17T02:51:40.978Z,94.60
2017-09-17T02:54:10.087Z,94.50
2017-09-17T02:56:41.956Z,94.20
2017-09-17T02:59:11.784Z,94.20
2017-09-17T03:01:40.916Z,94.10
2017-09-17T03:04:10.013Z,94.10
2017-09-17T03:06:39.107Z,93.90
2017-09-17T03:09:08.539Z,93.80
2017-09-17T03:11:39.647Z,93.50
2017-09-17T03:14:08.815Z,93.50
2017-09-17T03:16:37.895Z,93.50
2017-09-17T03:19:07.160Z,93.40
2017-09-17T03:21:36.987Z,93.30
2017-09-17T03:24:06.454Z,93.30
2017-09-17T03:26:35.715Z,93.20
2017-09-17T03:29:04.915Z,93.20
2017-09-17T03:31:34.251Z,93.20
2017-09-17T03:34:03.499Z,93.20
2017-09-17T03:36:32.606Z,93.20
2017-09-17T03:39:01.756Z,93.10
2017-09-17T03:41:31.632Z,93.00
2017-09-17T03:44:00.803Z,93.00
2017-09-17T03:46:29.866Z,92.90
2017-09-17T03:48:59.788Z,92.90
2017-09-17T03:51:29.653Z,92.80
2017-09-17T03:53:59.058Z,92.80
2017-09-17T03:56:28.092Z,92.80
2017-09-17T03:58:58.037Z,92.70
2017-09-17T04:01:29.226Z,92.70
2017-09-17T04:04:03.362Z,92.70
2017-09-17T04:06:33.270Z,92.80
2017-09-17T04:09:05.568Z,92.70
2017-09-17T04:11:39.620Z,92.70
2017-09-17T04:14:08.698Z,92.60
2017-09-17T04:16:38.094Z,92.60
2017-09-17T04:19:07.292Z,92.50
2017-09-17T04:21:36.402Z,92.60
2017-09-17T04:24:05.610Z,92.70
2017-09-17T04:26:34.712Z,92.90
2017-09-17T04:29:04.571Z,92.90
2017-09-17T04:31:33.771Z,92.90
2017-09-17T04:34:02.824Z,92.90
2017-09-17T04:36:32.828Z,93.10
2017-09-17T04:39:01.914Z,93.10
2017-09-17T04:41:30.971Z,93.10
2017-09-17T04:44:00.453Z,93.00
2017-09-17T04:46:29.499Z,92.80
2017-09-17T04:48:58.582Z,92.80
2017-09-17T04:51:28.096Z,92.80
2017-09-17T04:53:57.187Z,92.70
2017-09-17T04:56:26.423Z,92.60
2017-09-17T04:58:55.792Z,92.60
2017-09-17T05:01:25.014Z,92.60
2017-09-17T05:03:54.828Z,92.50
2017-09-17T05:06:23.902Z,92.50
2017-09-17T05:08:54.149Z,92.50
2017-09-17T05:11:23.316Z,92.60
2017-09-17T05:13:53.196Z,92.60
2017-09-17T05:16:22.627Z,92.60
2017-09-17T05:18:51.751Z,92.60
2017-09-17T05:21:21.017Z,92.60
2017-09-17T05:23:50.499Z,92.50
2017-09-17T05:26:19.591Z,92.60
2017-09-17T05:28:48.651Z,92.50
2017-09-17T05:31:18.227Z,92.50
2017-09-17T05:33:48.341Z,92.50
2017-09-17T05:36:18.195Z,92.50
2017-09-17T05:38:47.290Z,92.50
2017-09-17T05:41:16.395Z,92.40
2017-09-17T05:43:45.525Z,92.40
2017-09-17T05:46:14.952Z,92.40
2017-09-17T05:48:45.274Z,92.50
2017-09-17T05:51:14.417Z,92.50
2017-09-17T05:53:43.549Z,92.40
2017-09-17T05:56:13.468Z,92.30
2017-09-17T05:58:43.292Z,92.10
2017-09-17T06:01:12.783Z,92.10
2017-09-17T06:03:42.943Z,92.10
2017-09-17T06:06:12.090Z,92.10
2017-09-17T06:08:41.991Z,92.20
2017-09-17T06:11:11.173Z,92.20
2017-09-17T06:13:40.702Z,92.10
2017-09-17T06:16:10.615Z,91.90
2017-09-17T06:18:40.107Z,91.90
2017-09-17T06:21:09.323Z,92.10
2017-09-17T06:23:39.208Z,92.00
2017-09-17T06:26:09.747Z,91.90
2017-09-17T06:28:40.582Z,91.90
2017-09-17T06:31:09.687Z,91.90
2017-09-17T06:33:39.145Z,92.00
2017-09-17T06:36:08.785Z,92.10
2017-09-17T06:38:38.527Z,91.60
2017-09-17T06:41:07.799Z,91.40
2017-09-17T06:43:37.082Z,91.20
2017-09-17T06:46:06.425Z,91.20
2017-09-17T06:48:36.426Z,91.30
2017-09-17T06:51:06.480Z,90.70
2017-09-17T06:53:36.836Z,90.70
2017-09-17T06:56:06.113Z,90.60
2017-09-17T06:58:35.489Z,90.60
2017-09-17T07:01:04.917Z,90.60
2017-09-17T07:03:34.797Z,90.60
2017-09-17T07:06:04.202Z,90.60
2017-09-17T07:08:34.146Z,90.50
2017-09-17T07:11:03.666Z,90.40
2017-09-17T07:13:33.214Z,90.00
2017-09-17T07:16:02.986Z,90.00
2017-09-17T07:18:32.462Z,89.90
2017-09-17T07:21:01.804Z,90.20
2017-09-17T07:23:32.396Z,89.10
2017-09-17T07:26:02.565Z,89.10
2017-09-17T07:28:32.703Z,87.70
2017-09-17T07:31:02.376Z,87.70
2017-09-17T07:33:31.930Z,87.60
2017-09-17T07:36:01.061Z,88.20
2017-09-17T07:38:30.365Z,87.70
2017-09-17T07:40:59.983Z,86.70
2017-09-17T07:43:31.083Z,86.40
2017-09-17T07:46:00.883Z,86.10
2017-09-17T07:48:30.584Z,85.20
2017-09-17T07:51:00.555Z,84.90
2017-09-17T07:53:29.978Z,85.50
2017-09-17T07:56:00.693Z,84.80
2017-09-17T07:58:31.420Z,85.10
2017-09-17T08:01:01.028Z,85.00
2017-09-17T08:03:36.763Z,85.10
2017-09-17T08:06:06.248Z,84.60
2017-09-17T08:08:35.507Z,84.60
2017-09-17T08:11:05.008Z,84.00
2017-09-17T08:13:35.239Z,83.60
2017-09-17T08:16:04.691Z,83.40
2017-09-17T08:18:34.217Z,83.20
2017-09-17T08:21:03.537Z,82.60
2017-09-17T08:23:33.761Z,83.20
2017-09-17T08:26:03.227Z,83.20
2017-09-17T08:28:32.738Z,82.30
2017-09-17T08:31:02.076Z,82.50
2017-09-17T08:33:31.515Z,82.70
2017-09-17T08:36:00.956Z,81.60
2017-09-17T08:38:30.605Z,82.00
2017-09-17T08:40:59.993Z,82.50
2017-09-17T08:43:29.339Z,80.60
2017-09-17T08:45:59.062Z,80.40
2017-09-17T08:48:28.495Z,81.30
2017-09-17T08:50:58.606Z,79.90
2017-09-17T08:53:29.491Z,80.20
2017-09-17T08:55:59.316Z,80.30
2017-09-17T08:58:28.720Z,78.90
2017-09-17T09:00:58.189Z,77.60
2017-09-17T09:03:27.924Z,76.60
2017-09-17T09:05:57.278Z,76.10
2017-09-17T09:08:26.741Z,74.80
2017-09-17T09:10:56.019Z,75.70
2017-09-17T09:13:26.075Z,75.20
2017-09-17T09:15:56.539Z,74.90
2017-09-17T09:18:26.210Z,71.40
2017-09-17T09:20:56.890Z,72.00
2017-09-17T09:23:27.047Z,72.00
2017-09-17T09:25:58.702Z,74.40
2017-09-17T09:28:28.526Z,75.60
2017-09-17T09:30:58.213Z,73.50
2017-09-17T09:33:28.009Z,73.40
2017-09-17T09:35:57.633Z,71.70
2017-09-17T09:38:27.712Z,71.20
2017-09-17T09:40:57.182Z,71.20
2017-09-17T09:43:29.267Z,72.60
2017-09-17T09:45:58.625Z,72.60
2017-09-17T09:48:28.292Z,72.60
2017-09-17T09:50:57.838Z,70.90
2017-09-17T09:53:27.419Z,70.20
2017-09-17T09:58:37.193Z,68.40
2017-09-17T10:01:07.412Z,67.90
2017-09-17T10:03:37.105Z,69.80
2017-09-17T10:06:06.657Z,69.10
2017-09-17T10:08:36.531Z,67.20
2017-09-17T10:11:06.159Z,65.20
2017-09-17T10:13:36.465Z,63.70
2017-09-17T10:16:05.970Z,63.60
2017-09-17T10:18:36.270Z,64.60
2017-09-17T10:21:05.922Z,65.90
2017-09-17T10:23:37.187Z,62.80
2017-09-17T10:26:06.751Z,62.80
2017-09-17T10:28:36.726Z,63.60
2017-09-17T10:31:06.545Z,61.70
2017-09-17T10:33:36.160Z,59.30
2017-09-17T10:36:05.954Z,60.00
2017-09-17T10:38:35.526Z,58.00
2017-09-17T10:41:05.731Z,55.10
2017-09-17T10:43:36.858Z,55.00
2017-09-17T10:46:06.638Z,60.10
2017-09-17T10:48:36.672Z,63.60
2017-09-17T10:51:06.557Z,63.40
2017-09-17T10:53:36.943Z,62.60
2017-09-17T10:56:07.923Z,57.70
2017-09-17T10:58:38.463Z,57.70
2017-09-17T11:01:07.915Z,59.20
2017-09-17T11:03:39.300Z,54.20
2017-09-17T11:06:10.149Z,54.10
2017-09-17T11:08:40.649Z,54.20
2017-09-17T11:11:10.811Z,54.40
2017-09-17T11:13:40.510Z,53.80
2017-09-17T11:16:10.081Z,51.70
2017-09-17T11:18:39.484Z,50.60
2017-09-17T11:21:09.010Z,49.30
2017-09-17T11:23:38.510Z,50.10
2017-09-17T11:26:08.745Z,50.40
2017-09-17T11:28:38.678Z,50.70
2017-09-17T11:31:08.182Z,48.50
2017-09-17T11:33:37.585Z,48.40
2017-09-17T11:38:52.084Z,47.20
2017-09-17T11:41:22.646Z,47.40
2017-09-17T11:43:52.515Z,47.40
2017-09-17T11:46:22.134Z,48.40
2017-09-17T11:48:52.855Z,48.80
2017-09-17T11:51:23.592Z,52.90
2017-09-17T11:53:53.829Z,51.20
2017-09-17T11:56:24.096Z,51.10
2017-09-17T11:58:53.652Z,48.10
2017-09-17T12:01:23.466Z,47.40
2017-09-17T12:03:52.959Z,48.20
2017-09-17T12:06:23.494Z,48.90
2017-09-17T12:08:54.698Z,49.30
2017-09-17T12:11:24.275Z,49.30
2017-09-17T12:13:54.415Z,49.90
2017-09-17T12:16:24.421Z,49.20
2017-09-17T12:18:54.185Z,48.70
2017-09-17T12:21:24.656Z,45.60
2017-09-17T12:23:55.307Z,45.60
2017-09-17T12:26:25.891Z,45.80
2017-09-17T12:28:55.881Z,45.80
2017-09-17T12:31:26.448Z,45.30
2017-09-17T12:33:56.754Z,45.30
2017-09-17T12:36:26.398Z,45.70
2017-09-17T12:38:56.114Z,45.70
2017-09-17T12:41:27.433Z,46.80
2017-09-17T12:43:57.976Z,47.80
2017-09-17T12:46:27.498Z,47.80
2017-09-17T12:48:56.861Z,48.50
2017-09-17T12:51:26.067Z,48.70
2017-09-17T12:53:55.769Z,48.60
2017-09-17T12:56:24.915Z,50.10
2017-09-17T12:58:54.124Z,51.50
2017-09-17T13:01:24.279Z,53.00
2017-09-17T13:03:53.535Z,53.00
2017-09-17T13:06:23.955Z,53.70
2017-09-17T13:08:53.431Z,53.70
2017-09-17T13:11:22.557Z,54.90
2017-09-17T13:13:52.482Z,55.30
2017-09-17T13:16:22.830Z,55.30
2017-09-17T13:18:52.439Z,55.40
2017-09-17T13:21:21.814Z,55.30
2017-09-17T13:23:51.045Z,55.00
2017-09-17T13:26:20.331Z,53.30
2017-09-17T13:28:52.006Z,51.90
2017-09-17T13:31:21.146Z,51.90
2017-09-17T13:33:51.666Z,52.90
2017-09-17T13:36:21.149Z,52.90
2017-09-17T13:38:51.278Z,52.50
2017-09-17T13:41:21.865Z,52.80
2017-09-17T13:43:51.401Z,52.80
2017-09-17T13:46:20.988Z,52.80
2017-09-17T13:48:50.340Z,52.90
2017-09-17T13:51:20.374Z,52.30
2017-09-17T13:53:49.610Z,52.30
2017-09-17T13:56:18.851Z,52.70
2017-09-17T13:58:49.519Z,52.20
2017-09-17T14:01:18.788Z,52.20
2017-09-17T14:03:48.961Z,51.60
2017-09-17T14:06:18.329Z,52.20
2017-09-17T14:08:47.930Z,50.60
2017-09-17T14:11:17.454Z,50.10
2017-09-17T14:13:46.827Z,48.90
2017-09-17T14:16:16.470Z,51.10
2017-09-17T14:18:45.990Z,51.40
2017-09-17T14:21:16.465Z,50.70
2017-09-17T14:23:45.890Z,50.70
2017-09-17T14:26:15.331Z,50.20
2017-09-17T14:28:44.952Z,49.60
2017-09-17T14:31:15.169Z,50.00
2017-09-17T14:33:44.971Z,49.50
2017-09-17T14:36:14.517Z,49.00
2017-09-17T14:38:43.958Z,49.00
2017-09-17T14:41:13.482Z,48.70
2017-09-17T14:43:43.910Z,47.60
2017-09-17T14:46:13.919Z,47.40
2017-09-17T14:48:43.792Z,48.10
2017-09-17T14:51:13.017Z,48.10
2017-09-17T14:53:42.420Z,47.50
2017-09-17T14:56:11.876Z,48.20
2017-09-17T14:58:41.225Z,48.20
2017-09-17T15:01:11.316Z,48.10
2017-09-17T15:03:40.841Z,48.90
2017-09-17T15:06:10.599Z,49.10
2017-09-17T15:08:41.111Z,48.90
2017-09-17T15:11:12.290Z,48.60
2017-09-17T15:13:41.982Z,48.60
2017-09-17T15:16:12.350Z,49.30
2017-09-17T15:18:41.820Z,49.20
2017-09-17T15:21:11.323Z,50.10
2017-09-17T15:23:40.883Z,50.00
2017-09-17T15:26:10.590Z,50.30
2017-09-17T15:28:41.599Z,50.30
2017-09-17T15:31:11.262Z,50.30
2017-09-17T15:33:41.783Z,50.90
2017-09-17T15:36:11.910Z,50.80
2017-09-17T15:38:42.051Z,51.50
2017-09-17T15:41:11.527Z,51.50
2017-09-17T15:43:41.625Z,51.90
2017-09-17T15:46:10.942Z,51.90
2017-09-17T15:48:41.347Z,52.30
2017-09-17T15:51:10.641Z,52.30
2017-09-17T15:53:40.615Z,52.20
2017-09-17T15:56:10.094Z,53.00
2017-09-17T15:58:40.384Z,52.90
2017-09-17T16:01:10.387Z,52.80
2017-09-17T16:03:39.560Z,52.80
2017-09-17T16:06:09.984Z,52.70
2017-09-17T16:08:41.389Z,52.60
2017-09-17T16:11:11.032Z,51.70
2017-09-17T16:13:40.154Z,52.40
2017-09-17T16:16:09.708Z,52.30
2017-09-17T16:18:39.716Z,51.80
2017-09-17T16:21:09.875Z,52.60
2017-09-17T16:23:39.639Z,52.60
2017-09-17T16:26:09.598Z,53.30
2017-09-17T16:28:39.140Z,53.30
2017-09-17T16:31:08.403Z,54.30
2017-09-17T16:33:38.604Z,55.10
2017-09-17T16:36:08.074Z,55.10
2017-09-17T16:38:38.099Z,56.10
2017-09-17T16:41:08.614Z,55.90
2017-09-17T16:43:38.171Z,56.00
2017-09-17T16:46:07.868Z,56.40
2017-09-17T16:48:37.523Z,56.00
2017-09-17T16:51:08.935Z,56.30
2017-09-17T16:53:38.428Z,57.00
2017-09-17T16:56:07.685Z,57.50
2017-09-17T16:58:38.141Z,58.40
2017-09-17T17:01:09.082Z,60.70
2017-09-17T17:03:39.649Z,60.70
2017-09-17T17:06:09.183Z,61.80
2017-09-17T17:08:39.473Z,63.60
2017-09-17T17:11:09.341Z,63.30
2017-09-17T17:13:39.019Z,64.00
2017-09-17T17:16:09.133Z,64.70
2017-09-17T17:18:40.690Z,65.50
2017-09-17T17:21:10.606Z,66.20
2017-09-17T17:23:40.790Z,67.80
2017-09-17T17:26:12.735Z,67.80
2017-09-17T17:28:42.064Z,68.90
2017-09-17T17:31:11.848Z,70.60
2017-09-17T17:33:41.246Z,70.40
2017-09-17T17:36:10.720Z,71.60
2017-09-17T17:38:41.133Z,73.00
2017-09-17T17:41:10.738Z,74.00
2017-09-17T17:43:42.116Z,74.40
2017-09-17T17:46:12.404Z,74.50
2017-09-17T17:48:42.718Z,76.80
2017-09-17T17:51:13.160Z,77.60
2017-09-17T17:53:43.241Z,78.20
2017-09-17T17:56:12.693Z,78.50
2017-09-17T17:58:42.454Z,79.10
2017-09-17T18:01:12.048Z,79.30
2017-09-17T18:03:41.747Z,80.30
2017-09-17T18:06:11.661Z,80.90
2017-09-17T18:08:41.908Z,81.00
2017-09-17T18:11:11.831Z,81.20
2017-09-17T18:13:41.398Z,81.90
2017-09-17T18:16:11.419Z,81.20
2017-09-17T18:18:40.653Z,81.10
2017-09-17T18:21:09.891Z,80.80
2017-09-17T18:23:39.179Z,80.70
2017-09-17T18:26:08.361Z,80.70
2017-09-17T18:28:38.588Z,81.20
2017-09-17T18:31:09.297Z,81.90
2017-09-17T18:33:38.749Z,81.40
2017-09-17T18:36:08.619Z,81.40
2017-09-17T18:38:37.786Z,80.80
2017-09-17T18:41:07.327Z,80.60
2017-09-17T18:43:37.688Z,81.00
2017-09-17T18:46:07.388Z,81.00
2017-09-17T18:48:36.758Z,81.40
2017-09-17T18:51:12.324Z,82.20
2017-09-17T18:53:41.847Z,82.30
2017-09-17T18:56:11.088Z,82.10
2017-09-17T18:58:40.228Z,81.70
2017-09-17T19:01:09.473Z,82.40
2017-09-17T19:03:38.924Z,82.20
2017-09-17T19:06:08.265Z,81.90
2017-09-17T19:08:37.591Z,83.00
2017-09-17T19:11:07.019Z,82.50
2017-09-17T19:13:36.423Z,82.40
2017-09-17T19:16:05.696Z,82.40
2017-09-17T19:18:35.342Z,82.70
2017-09-17T19:21:06.220Z,84.20
2017-09-17T19:23:35.679Z,85.00
2017-09-17T19:26:04.991Z,85.50
2017-09-17T19:28:34.932Z,85.80
2017-09-17T19:31:04.243Z,86.00
2017-09-17T19:33:33.671Z,85.60
2017-09-17T19:36:03.810Z,86.00
2017-09-17T19:38:33.172Z,85.90
2017-09-17T19:41:03.774Z,86.50
2017-09-17T19:43:34.389Z,86.50
2017-09-17T19:46:05.662Z,87.10
2017-09-17T19:48:38.024Z,87.10
2017-09-17T19:51:07.966Z,87.10
2017-09-17T19:53:38.050Z,87.70
2017-09-17T19:56:07.870Z,87.40
2017-09-17T19:58:37.756Z,87.60
2017-09-17T20:01:06.946Z,87.30
2017-09-17T20:03:36.229Z,86.90
2017-09-17T20:06:05.978Z,86.80
2017-09-17T20:08:35.246Z,86.50
2017-09-17T20:11:05.113Z,85.90
2017-09-17T20:13:34.344Z,84.90
2017-09-17T20:16:03.522Z,84.30
2017-09-17T20:18:33.502Z,83.90
2017-09-17T20:21:02.767Z,84.00
2017-09-17T20:23:31.975Z,85.00
2017-09-17T20:26:01.359Z,85.60
2017-09-17T20:28:30.622Z,86.60
2017-09-17T20:31:00.073Z,86.50
2017-09-17T20:33:29.501Z,86.80
2017-09-17T20:35:58.799Z,87.30
2017-09-17T20:38:29.012Z,87.40
2017-09-17T20:40:58.742Z,87.30
2017-09-17T20:43:28.586Z,87.80
2017-09-17T20:45:58.622Z,86.60
2017-09-17T20:48:28.147Z,86.70
2017-09-17T20:50:57.495Z,85.80
2017-09-17T20:53:27.436Z,85.10
2017-09-17T20:55:56.630Z,85.10
2017-09-17T20:58:25.807Z,85.20
2017-09-17T21:00:55.727Z,85.20
2017-09-17T21:03:25.679Z,85.00
2017-09-17T21:05:54.945Z,85.00
2017-09-17T21:08:24.085Z,85.00
2017-09-17T21:10:54.225Z,85.10
2017-09-17T21:13:23.879Z,84.90
2017-09-17T21:15:53.099Z,84.80
2017-09-17T21:18:22.228Z,84.70
2017-09-17T21:20:51.415Z,84.20
2017-09-17T21:23:20.602Z,84.20
2017-09-17T21:25:50.174Z,84.00
2017-09-17T21:28:19.355Z,84.20
2017-09-17T21:30:48.593Z,85.10
2017-09-17T21:33:17.892Z,84.90
2017-09-17T21:35:47.115Z,85.50
2017-09-17T21:38:17.416Z,85.30
2017-09-17T21:40:46.582Z,86.30
2017-09-17T21:43:15.774Z,85.80
2017-09-17T21:45:45.000Z,85.60
2017-09-17T21:48:14.173Z,86.20
2017-09-17T21:50:43.362Z,86.10
2017-09-17T21:53:12.569Z,86.20
2017-09-17T21:55:42.795Z,85.80
2017-09-17T21:58:13.279Z,86.10
2017-09-17T22:00:43.206Z,85.60
2017-09-17T22:03:12.309Z,85.50
2017-09-17T22:05:42.441Z,85.90
2017-09-17T22:08:11.550Z,86.40
2017-09-17T22:10:40.974Z,86.50
2017-09-17T22:13:10.373Z,86.30
2017-09-17T22:15:39.576Z,86.10
2017-09-17T22:18:08.782Z,87.60
2017-09-17T22:20:37.895Z,88.60
2017-09-17T22:23:07.789Z,87.60
2017-09-17T22:25:36.940Z,87.70
2017-09-17T22:28:07.611Z,87.80
2017-09-17T22:30:38.352Z,88.10
2017-09-17T22:33:08.189Z,87.80
2017-09-17T22:35:37.283Z,87.80
2017-09-17T22:38:06.613Z,87.50
2017-09-17T22:40:35.959Z,87.30
2017-09-17T22:43:05.040Z,87.20
2017-09-17T22:45:34.280Z,87.40
2017-09-17T22:48:03.417Z,87.90
2017-09-17T22:50:32.555Z,87.80
2017-09-17T22:53:02.458Z,89.20
2017-09-17T22:55:32.377Z,89.20
2017-09-17T22:58:02.258Z,88.80
2017-09-17T23:00:31.355Z,88.80
2017-09-17T23:03:00.407Z,88.70
2017-09-17T23:05:29.472Z,88.80
2017-09-17T23:07:59.380Z,89.80
2017-09-17T23:10:29.246Z,90.20
2017-09-17T23:12:58.403Z,90.20
2017-09-17T23:15:27.768Z,90.20
2017-09-17T23:17:57.111Z,90.00
2017-09-17T23:20:26.222Z,90.00
2017-09-17T23:22:55.371Z,90.10
2017-09-17T23:25:25.255Z,90.00
2017-09-17T23:27:54.355Z,90.00
2017-09-17T23:30:23.551Z,89.70
2017-09-17T23:32:52.631Z,90.20
2017-09-17T23:35:22.911Z,89.50
2017-09-17T23:37:52.601Z,89.50
2017-09-17T23:40:22.435Z,89.50
2017-09-17T23:42:52.695Z,89.50
2017-09-17T23:45:22.299Z,89.50
2017-09-17T23:47:51.409Z,89.30
2017-09-17T23:50:20.854Z,88.70
2017-09-17T23:52:50.405Z,89.10
2017-09-17T23:55:19.528Z,89.20
2017-09-17T23:57:49.832Z,89.70
